Time;durP1;ratioP1;P1;durP2;ratioP2;P2;SDS_P1;SDS_P2;PMS_P1;PMS_P2;Temp;Humidity;BMP_temperature;BMP_pressure;BME280_temperature;BME280_humidity;BME280_pressure;Samples;Min_cycle;Max_cycle;Signal;HPM_P1;HPM_P2
2023/10/26 00:00:11;;;;;;;13.60;11.20;;;;;;;12.49;100.00;98072.56;107749;1257;60530;-78
2023/10/26 00:02:40;;;;;;;12.90;11.10;;;;;;;12.50;100.00;98068.33;106097;1253;60537;-78
2023/10/26 00:05:08;;;;;;;12.50;9.60;;;;;;;12.52;100.00;98060.29;105822;1251;73761;-80
2023/10/26 00:07:35;;;;;;;11.60;10.40;;;;;;;12.54;100.00;98054.80;105898;1256;70269;-79
2023/10/26 00:10:03;;;;;;;12.00;9.60;;;;;;;12.56;100.00;98054.50;105866;1254;73251;-77
2023/10/26 00:12:30;;;;;;;12.10;10.70;;;;;;;12.58;100.00;98053.98;105978;1253;61643;-77
2023/10/26 00:14:58;;;;;;;9.50;8.60;;;;;;;12.59;100.00;98050.69;106012;1255;60411;-77
2023/10/26 00:17:26;;;;;;;10.20;7.80;;;;;;;12.60;100.00;98048.44;105880;1253;72545;-78
2023/10/26 00:19:54;;;;;;;9.80;7.80;;;;;;;12.61;100.00;98048.83;105861;1257;68042;-76
2023/10/26 00:22:22;;;;;;;9.00;7.10;;;;;;;12.64;100.00;98038.52;105923;1254;71395;-79
2023/10/26 00:24:50;;;;;;;7.40;6.70;;;;;;;12.66;100.00;98038.12;105978;1256;60437;-77
2023/10/26 00:27:17;;;;;;;7.80;7.00;;;;;;;12.66;100.00;98034.75;106147;1257;60376;-79
2023/10/26 00:29:45;;;;;;;6.70;6.10;;;;;;;12.66;100.00;98032.79;106314;1257;72377;-76
2023/10/26 00:32:12;;;;;;;7.10;6.40;;;;;;;12.65;100.00;98033.91;106384;1250;70425;-78
2023/10/26 00:34:40;;;;;;;7.90;7.10;;;;;;;12.65;100.00;98032.48;106168;1253;71445;-76
2023/10/26 00:37:08;;;;;;;7.50;5.80;;;;;;;12.64;100.00;98033.55;106068;1256;60463;-81
2023/10/26 00:39:35;;;;;;;7.10;6.50;;;;;;;12.65;100.00;98031.77;105773;1250;60524;-77
2023/10/26 00:42:03;;;;;;;7.40;6.60;;;;;;;12.68;100.00;98030.31;106011;1257;73788;-77
2023/10/26 00:44:30;;;;;;;8.10;5.90;;;;;;;12.68;100.00;98032.52;105891;1253;70305;-77
2023/10/26 00:46:58;;;;;;;7.90;5.70;;;;;;;12.68;100.00;98032.73;106074;1256;72419;-76
2023/10/26 00:49:26;;;;;;;7.80;6.90;;;;;;;12.67;100.00;98032.69;106024;1256;60501;-78
2023/10/26 00:51:55;;;;;;;7.80;5.60;;;;;;;12.69;100.00;98042.95;105862;1253;60502;-78
2023/10/26 00:54:23;;;;;;;7.80;6.70;;;;;;;12.70;100.00;98048.14;105952;1259;73898;-77
2023/10/26 00:56:51;;;;;;;6.30;5.70;;;;;;;12.70;100.00;98040.13;105939;1253;70116;-76
2023/10/26 00:59:18;;;;;;;6.80;6.20;;;;;;;12.68;100.00;98038.60;105949;1255;70288;-75
2023/10/26 01:01:47;;;;;;;7.60;6.90;;;;;;;12.67;100.00;98036.19;105942;1257;60399;-77
2023/10/26 01:04:16;;;;;;;7.90;7.20;;;;;;;12.67;100.00;98032.65;105905;1253;60471;-78
2023/10/26 01:06:44;;;;;;;7.70;7.00;;;;;;;12.68;100.00;98032.63;105966;1253;73864;-77
2023/10/26 01:09:14;;;;;;;8.90;7.60;;;;;;;12.68;100.00;98038.54;105802;1259;68647;-76
2023/10/26 01:11:42;;;;;;;8.70;7.90;;;;;;;12.69;100.00;98038.78;105908;1253;71602;-75
2023/10/26 01:14:11;;;;;;;8.90;7.70;;;;;;;12.68;100.00;98036.25;105886;1256;61679;-75
2023/10/26 01:16:39;;;;;;;9.20;8.30;;;;;;;12.66;100.00;98034.96;105878;1253;60479;-74
2023/10/26 01:19:08;;;;;;;8.10;7.20;;;;;;;12.68;100.00;98032.15;106051;1253;73889;-75
2023/10/26 01:21:52;;;;;;;8.30;7.50;;;;;;;12.69;100.00;98033.95;106032;1257;68989;-76
2023/10/26 01:24:20;;;;;;;9.00;8.20;;;;;;;12.70;100.00;98034.29;106072;1251;72932;-75
2023/10/26 01:26:48;;;;;;;9.40;8.50;;;;;;;12.71;100.00;98033.55;105966;1256;60395;-74
2023/10/26 01:29:16;;;;;;;17.00;8.20;;;;;;;12.71;100.00;98031.66;105879;1254;60616;-75
2023/10/26 01:31:45;;;;;;;8.50;7.40;;;;;;;12.71;100.00;98030.59;106028;1251;72822;-73
2023/10/26 01:34:13;;;;;;;8.60;7.80;;;;;;;12.71;100.00;98030.59;106010;1251;70174;-75
2023/10/26 01:36:40;;;;;;;8.50;7.80;;;;;;;12.69;100.00;98037.09;105923;1253;72659;-74
2023/10/26 01:39:08;;;;;;;8.80;8.00;;;;;;;12.66;100.00;98044.67;105966;1256;60582;-76
2023/10/26 01:41:35;;;;;;;10.00;8.20;;;;;;;12.62;100.00;98049.17;106044;1251;60404;-76
2023/10/26 01:45:53;;;;;;;9.50;7.80;;;;;;;12.59;100.00;98044.35;102619;1292;615432;-76
2023/10/26 01:48:20;;;;;;;8.60;7.40;;;;;;;12.56;100.00;98049.55;105226;1266;59591;-76
2023/10/26 01:50:46;;;;;;;9.30;8.30;;;;;;;12.55;100.00;98053.07;105413;1264;59225;-78
2023/10/26 01:53:13;;;;;;;9.30;8.40;;;;;;;12.54;100.00;98052.68;105480;1257;59270;-77
2023/10/26 01:55:41;;;;;;;10.00;8.30;;;;;;;12.54;100.00;98054.77;105644;1260;68820;-78
2023/10/26 01:58:07;;;;;;;8.20;7.40;;;;;;;12.53;100.00;98055.64;105484;1257;219151;-78
2023/10/26 02:00:34;;;;;;;9.00;7.90;;;;;;;12.52;100.00;98056.19;105723;1255;61801;-76
2023/10/26 02:03:01;;;;;;;9.80;8.10;;;;;;;12.49;100.00;98058.46;105665;1255;60031;-76
2023/10/26 02:05:28;;;;;;;13.50;11.90;;;;;;;12.48;100.00;98060.54;105681;1262;72254;-76
2023/10/26 02:07:55;;;;;;;10.90;8.70;;;;;;;12.46;100.00;98056.65;105874;1260;69550;-74
2023/10/26 02:10:25;;;;;;;9.00;8.10;;;;;;;12.46;100.00;98056.21;105703;1255;72699;-77
2023/10/26 02:12:53;;;;;;;10.00;8.50;;;;;;;12.44;100.00;98055.36;105930;1258;61050;-79
2023/10/26 02:15:20;;;;;;;11.80;10.60;;;;;;;12.44;100.00;98057.53;105599;1262;60144;-77
2023/10/26 02:17:47;;;;;;;11.00;9.80;;;;;;;12.43;100.00;98057.47;105749;1254;72932;-78
2023/10/26 02:20:13;;;;;;;9.10;8.20;;;;;;;12.43;100.00;98052.02;106278;1255;70139;-78
2023/10/26 02:22:40;;;;;;;9.00;8.00;;;;;;;12.42;100.00;98054.81;107613;1253;71299;-79
2023/10/26 02:25:07;;;;;;;8.50;7.60;;;;;;;12.39;100.00;98055.02;107647;1254;60797;-78
2023/10/26 02:27:34;;;;;;;8.70;7.90;;;;;;;12.42;100.00;98061.16;106748;1255;60441;-77
2023/10/26 02:30:01;;;;;;;9.80;8.20;;;;;;;12.44;100.00;98064.59;107140;1254;72880;-78
2023/10/26 02:32:28;;;;;;;8.40;7.70;;;;;;;12.43;100.00;98065.62;106849;1254;69013;-79
2023/10/26 02:34:55;;;;;;;14.30;11.20;;;;;;;12.41;100.00;98064.01;106622;1259;71037;-79
2023/10/26 02:37:22;;;;;;;9.80;8.80;;;;;;;12.38;100.00;98065.09;106631;1257;60577;-76
2023/10/26 02:39:48;;;;;;;9.70;8.00;;;;;;;12.37;100.00;98070.80;106471;1254;59749;-78
2023/10/26 02:42:15;;;;;;;9.10;8.00;;;;;;;12.36;100.00;98069.16;105820;1259;71593;-77
2023/10/26 02:44:42;;;;;;;9.30;8.10;;;;;;;12.35;100.00;98073.32;105765;1260;69205;-78
2023/10/26 02:47:09;;;;;;;8.80;7.90;;;;;;;12.34;100.00;98073.28;105783;1258;72702;-79
2023/10/26 02:49:36;;;;;;;8.30;7.50;;;;;;;12.33;100.00;98071.79;105581;1254;61714;-78
2023/10/26 02:52:02;;;;;;;8.70;7.80;;;;;;;12.33;100.00;98074.70;105781;1254;59964;-77
2023/10/26 02:54:30;;;;;;;8.80;8.00;;;;;;;12.32;100.00;98074.83;106014;1254;72994;-79
2023/10/26 02:56:57;;;;;;;8.60;7.70;;;;;;;12.31;100.00;98075.70;106074;1259;69043;-80
2023/10/26 02:59:24;;;;;;;8.30;7.50;;;;;;;12.31;100.00;98081.88;105653;1257;72784;-78
2023/10/26 03:01:52;;;;;;;8.10;7.30;;;;;;;12.30;100.00;98090.81;105778;1254;61828;-79
2023/10/26 03:04:19;;;;;;;8.50;7.50;;;;;;;12.30;100.00;98091.23;105655;1254;59642;-79
2023/10/26 03:06:48;;;;;;;8.30;7.10;;;;;;;12.29;100.00;98089.44;105879;1260;73169;-80
2023/10/26 03:09:17;;;;;;;8.70;7.10;;;;;;;12.30;100.00;98090.81;105580;1254;70751;-80
2023/10/26 03:11:44;;;;;;;8.50;7.20;;;;;;;12.29;100.00;98086.33;105897;1254;72628;-79
2023/10/26 03:14:10;;;;;;;8.40;7.60;;;;;;;12.28;100.00;98094.20;105734;1259;59858;-77
2023/10/26 03:16:37;;;;;;;7.30;6.60;;;;;;;12.27;100.00;98097.41;105661;1254;60044;-78
2023/10/26 03:19:06;;;;;;;7.00;6.40;;;;;;;12.26;100.00;98099.25;105549;1260;73027;-81
2023/10/26 03:21:34;;;;;;;8.20;6.80;;;;;;;12.25;100.00;98097.42;105579;1262;68947;-78
2023/10/26 03:24:01;;;;;;;7.30;6.60;;;;;;;12.26;100.00;98101.18;105832;1254;72381;-79
2023/10/26 03:26:27;;;;;;;7.70;6.90;;;;;;;12.26;100.00;98100.32;105854;1255;62229;-80
2023/10/26 03:28:54;;;;;;;8.40;6.40;;;;;;;12.26;100.00;98097.70;105852;1254;59539;-80
2023/10/26 03:31:23;;;;;;;7.50;6.50;;;;;;;12.26;100.00;98097.73;105926;1254;71807;-78
2023/10/26 03:33:50;;;;;;;8.20;6.90;;;;;;;12.24;100.00;98101.64;105943;1254;70246;-79
2023/10/26 03:36:21;;;;;;;7.40;6.60;;;;;;;12.25;100.00;98105.62;105976;1254;72732;-80
2023/10/26 03:38:49;;;;;;;7.60;6.90;;;;;;;12.25;100.00;98110.58;105845;1257;61909;-77
2023/10/26 03:41:16;;;;;;;9.40;6.40;;;;;;;12.23;100.00;98113.86;105990;1260;60015;-76
2023/10/26 03:43:42;;;;;;;7.40;6.40;;;;;;;12.24;100.00;98113.52;106088;1255;73136;-76
2023/10/26 03:46:10;;;;;;;6.80;5.50;;;;;;;12.28;100.00;98114.60;105650;1254;69765;-75
2023/10/26 03:48:40;;;;;;;6.50;5.70;;;;;;;12.30;100.00;98111.02;105869;1260;73084;-73
2023/10/26 03:51:06;;;;;;;6.10;5.50;;;;;;;12.30;100.00;98109.38;105684;1257;61766;-73
2023/10/26 03:53:33;;;;;;;6.50;5.90;;;;;;;12.30;100.00;98111.61;105870;1260;60445;-78
2023/10/26 03:56:01;;;;;;;6.60;5.50;;;;;;;12.31;100.00;98116.13;107482;1254;71514;-76
2023/10/26 03:58:30;;;;;;;6.60;5.90;;;;;;;12.32;100.00;98118.84;105890;1254;70152;-77
2023/10/26 04:00:57;;;;;;;7.10;5.80;;;;;;;12.33;100.00;98120.41;106054;1254;71386;-77
2023/10/26 04:03:25;;;;;;;6.90;6.20;;;;;;;12.32;100.00;98126.23;105927;1257;61649;-79
2023/10/26 04:05:52;;;;;;;7.10;6.30;;;;;;;12.31;100.00;98123.24;105722;1260;60235;-81
2023/10/26 04:08:20;;;;;;;7.80;6.30;;;;;;;12.29;100.00;98128.52;105717;1260;72738;-79
2023/10/26 04:10:47;;;;;;;6.50;5.90;;;;;;;12.28;100.00;98131.27;106326;1254;70426;-80
2023/10/26 04:13:14;;;;;;;6.10;5.50;;;;;;;12.29;100.00;98129.91;105945;1254;71498;-76
2023/10/26 04:15:41;;;;;;;6.80;6.20;;;;;;;12.29;100.00;98134.38;106021;1253;61985;-76
2023/10/26 04:18:08;;;;;;;8.80;5.50;;;;;;;12.28;100.00;98136.76;105845;1259;59548;-77
2023/10/26 04:20:36;;;;;;;8.00;6.50;;;;;;;12.26;100.00;98140.13;106059;1254;70874;-77
2023/10/26 04:23:03;;;;;;;5.80;5.30;;;;;;;12.24;100.00;98137.24;105796;1255;70129;-78
2023/10/26 04:25:31;;;;;;;6.90;5.50;;;;;;;12.22;100.00;98139.91;105996;1257;72702;-77
2023/10/26 04:28:18;;;;;;;6.70;5.40;;;;;;;12.21;100.00;98136.33;105771;1257;62121;-77
2023/10/26 04:30:48;;;;;;;6.80;5.70;;;;;;;12.22;100.00;98133.04;106103;1254;59615;-79
2023/10/26 04:33:15;;;;;;;6.50;5.90;;;;;;;12.23;100.00;98138.77;105975;1254;73862;-76
2023/10/26 04:35:44;;;;;;;6.30;5.50;;;;;;;12.25;100.00;98144.45;106066;1256;70184;-77
2023/10/26 04:38:11;;;;;;;6.80;5.10;;;;;;;12.26;100.00;98151.48;106142;1254;72694;-79
2023/10/26 04:40:40;;;;;;;7.00;5.90;;;;;;;12.26;100.00;98154.27;105959;1253;61733;-78
2023/10/26 04:43:07;;;;;;;5.60;5.00;;;;;;;12.28;100.00;98154.73;105970;1254;59765;-80
2023/10/26 04:45:34;;;;;;;7.80;5.60;;;;;;;12.32;100.00;98161.95;106077;1256;73004;-75
2023/10/26 04:48:02;;;;;;;7.80;5.80;;;;;;;12.36;100.00;98165.81;105945;1259;70213;-78
2023/10/26 04:50:32;;;;;;;7.30;5.70;;;;;;;12.42;100.00;98173.23;106039;1254;72659;-77
2023/10/26 04:52:59;;;;;;;5.90;5.30;;;;;;;12.44;100.00;98173.65;105895;1252;61873;-76
2023/10/26 04:55:35;;;;;;;6.70;5.90;;;;;;;12.44;100.00;98176.80;105942;1254;59710;-79
2023/10/26 04:58:02;;;;;;;6.90;6.20;;;;;;;12.46;100.00;98180.23;105961;1256;72864;-78
2023/10/26 05:00:30;;;;;;;8.80;5.90;;;;;;;12.45;100.00;98176.31;106047;1254;70435;-77
2023/10/26 05:02:57;;;;;;;6.50;5.70;;;;;;;12.45;100.00;98178.27;106040;1256;72689;-76
2023/10/26 05:05:24;;;;;;;7.70;6.10;;;;;;;12.47;100.00;98179.98;106054;1256;60632;-74
2023/10/26 05:07:51;;;;;;;7.80;6.50;;;;;;;12.50;100.00;98188.61;106020;1257;60228;-74
2023/10/26 05:10:19;;;;;;;7.30;5.80;;;;;;;12.49;100.00;98189.27;106093;1256;73033;-75
2023/10/26 05:12:46;;;;;;;7.10;6.40;;;;;;;12.47;100.00;98194.90;106079;1257;69958;-77
2023/10/26 05:15:12;;;;;;;6.80;5.80;;;;;;;12.45;100.00;98191.95;105961;1251;71046;-76
2023/10/26 05:17:41;;;;;;;8.10;6.50;;;;;;;12.42;100.00;98200.39;106055;1257;61993;-76
2023/10/26 05:20:09;;;;;;;7.50;6.00;;;;;;;12.42;100.00;98206.81;106154;1251;60120;-77
2023/10/26 05:22:36;;;;;;;6.90;6.10;;;;;;;12.42;100.00;98213.02;106047;1251;73012;-77
2023/10/26 05:25:08;;;;;;;9.10;7.80;;;;;;;12.41;100.00;98213.10;106195;1255;69418;-77
2023/10/26 05:27:35;;;;;;;9.80;7.50;;;;;;;12.41;100.00;98217.52;106337;1252;71767;-79
2023/10/26 05:30:05;;;;;;;8.40;7.30;;;;;;;12.42;100.00;98218.13;106340;1251;61710;-80
2023/10/26 05:32:32;;;;;;;8.20;7.40;;;;;;;12.42;100.00;98217.71;106063;1256;60285;-78
2023/10/26 05:35:00;;;;;;;8.20;7.40;;;;;;;12.41;100.00;98217.53;106053;1257;72872;-78
2023/10/26 05:37:27;;;;;;;8.60;7.70;;;;;;;12.39;100.00;98215.98;106164;1255;70293;-79
2023/10/26 05:39:53;;;;;;;8.70;7.70;;;;;;;12.39;100.00;98213.19;106222;1257;72541;-78
2023/10/26 05:42:20;;;;;;;11.60;8.00;;;;;;;12.43;100.00;98212.14;105926;1257;61686;-77
2023/10/26 05:44:47;;;;;;;7.90;7.20;;;;;;;12.46;100.00;98210.80;105976;1251;60296;-78
2023/10/26 05:47:18;;;;;;;10.90;7.60;;;;;;;12.47;100.00;98211.78;106179;1254;72821;-74
2023/10/26 05:49:50;;;;;;;9.10;7.40;;;;;;;12.47;100.00;98210.43;106123;1251;70208;-76
2023/10/26 05:52:18;;;;;;;9.80;8.30;;;;;;;12.52;100.00;98211.41;106498;1256;72400;-80
2023/10/26 05:54:45;;;;;;;9.80;7.00;;;;;;;12.55;100.00;98211.41;106419;1252;60535;-77
2023/10/26 05:57:12;;;;;;;8.50;7.60;;;;;;;12.57;100.00;98211.27;106234;1257;60527;-76
2023/10/26 05:59:39;;;;;;;9.40;7.70;;;;;;;12.57;100.00;98212.27;106009;1252;71878;-81
2023/10/26 06:02:07;;;;;;;10.00;8.30;;;;;;;12.57;100.00;98207.96;106148;1255;70328;-77
2023/10/26 06:04:34;;;;;;;9.70;8.10;;;;;;;12.57;100.00;98209.89;105975;1251;71299;-80
2023/10/26 06:07:01;;;;;;;10.00;8.20;;;;;;;12.57;100.00;98213.09;106006;1258;60552;-79
2023/10/26 06:09:29;;;;;;;9.30;7.50;;;;;;;12.58;100.00;98211.94;106203;1256;61020;-80
2023/10/26 06:11:56;;;;;;;8.30;7.10;;;;;;;12.59;100.00;98215.24;106157;1257;72949;-81
2023/10/26 06:14:23;;;;;;;8.40;7.40;;;;;;;12.61;100.00;98216.77;106203;1251;70279;-78
2023/10/26 06:16:50;;;;;;;8.60;7.70;;;;;;;12.62;100.00;98223.81;106129;1255;72507;-79
2023/10/26 06:19:17;;;;;;;8.50;7.60;;;;;;;12.56;100.00;98223.13;106048;1253;63133;-78
2023/10/26 06:21:43;;;;;;;8.60;7.50;;;;;;;12.55;100.00;98222.65;106038;1253;60331;-78
2023/10/26 06:24:12;;;;;;;9.50;7.30;;;;;;;12.57;100.00;98218.58;105974;1251;72336;-80
2023/10/26 06:26:39;;;;;;;9.50;7.20;;;;;;;12.61;100.00;98223.05;106094;1254;70359;-80
2023/10/26 06:29:06;;;;;;;11.20;8.10;;;;;;;12.63;100.00;98225.57;105957;1261;71822;-81
2023/10/26 06:31:32;;;;;;;9.10;8.20;;;;;;;12.62;100.00;98228.29;105914;1260;60613;-79
2023/10/26 06:34:00;;;;;;;10.30;8.30;;;;;;;12.61;100.00;98224.27;105942;1259;60455;-79
2023/10/26 06:36:27;;;;;;;10.80;8.40;;;;;;;12.62;100.00;98227.39;106144;1257;73080;-80
2023/10/26 06:38:56;;;;;;;10.30;8.50;;;;;;;12.59;100.00;98229.10;106425;1255;70274;-81
2023/10/26 06:41:23;;;;;;;9.40;8.50;;;;;;;12.59;100.00;98235.41;106052;1253;71451;-79
2023/10/26 06:43:49;;;;;;;9.70;8.40;;;;;;;12.56;100.00;98232.64;106012;1260;61711;-80
2023/10/26 06:46:16;;;;;;;9.00;7.60;;;;;;;12.54;100.00;98231.89;105992;1255;60363;-77
2023/10/26 06:48:43;;;;;;;9.20;7.70;;;;;;;12.56;100.00;98229.57;106337;1254;73846;-78
2023/10/26 06:51:10;;;;;;;11.40;7.50;;;;;;;12.60;100.00;98231.71;106267;1257;70569;-81
2023/10/26 06:53:37;;;;;;;9.40;7.90;;;;;;;12.62;100.00;98236.44;106479;1251;72770;-82
2023/10/26 06:56:11;;;;;;;8.70;7.80;;;;;;;12.62;100.00;98248.17;107209;1251;62503;-80
2023/10/26 06:58:43;;;;;;;10.10;8.30;;;;;;;12.62;99.70;98252.44;107039;1256;60443;-80
2023/10/26 07:01:10;;;;;;;8.70;7.90;;;;;;;12.59;99.86;98252.04;106191;1256;72574;-80
2023/10/26 07:03:49;;;;;;;11.60;7.90;;;;;;;12.59;100.00;98253.35;105956;1257;70257;-79
2023/10/26 07:06:15;;;;;;;11.40;8.10;;;;;;;12.62;99.15;98251.00;106244;1257;72534;-80
2023/10/26 07:08:43;;;;;;;9.30;7.90;;;;;;;12.66;99.20;98249.00;105993;1266;62052;-80
2023/10/26 07:11:11;;;;;;;8.90;8.00;;;;;;;12.71;99.70;98244.11;106221;1256;60459;-78
2023/10/26 07:13:38;;;;;;;11.10;8.70;;;;;;;12.76;99.93;98245.50;106123;1257;73873;-79
2023/10/26 07:16:05;;;;;;;8.40;7.10;;;;;;;12.83;100.00;98244.47;105880;1260;70411;-78
2023/10/26 07:18:32;;;;;;;14.40;8.10;;;;;;;12.88;99.53;98252.31;105873;1256;71479;-77
2023/10/26 07:21:04;;;;;;;10.40;7.90;;;;;;;12.91;99.19;98254.73;106003;1250;62023;-79
2023/10/26 07:23:32;;;;;;;11.20;9.20;;;;;;;12.91;98.72;98256.65;106085;1256;60340;-78
2023/10/26 07:25:58;;;;;;;9.80;8.80;;;;;;;12.89;97.86;98262.98;106182;1255;73940;-81
2023/10/26 07:28:25;;;;;;;12.20;9.10;;;;;;;12.84;96.85;98270.24;106324;1257;69246;-77
2023/10/26 07:30:52;;;;;;;9.50;7.50;;;;;;;12.81;96.25;98277.55;106209;1251;72760;-83
2023/10/26 07:33:20;;;;;;;10.90;8.10;;;;;;;12.77;95.53;98276.48;106110;1256;61927;-80
2023/10/26 07:35:56;;;;;;;9.30;8.30;;;;;;;12.76;95.93;98276.78;106365;1256;60453;-77
2023/10/26 07:38:26;;;;;;;10.40;9.00;;;;;;;12.76;96.11;98275.92;106287;1260;73967;-80
2023/10/26 07:41:05;;;;;;;11.00;8.60;;;;;;;12.78;97.20;98275.23;106249;1257;68832;-85
2023/10/26 07:43:32;;;;;;;10.40;9.00;;;;;;;12.82;97.05;98273.17;106202;1251;72631;-81
2023/10/26 07:46:02;;;;;;;9.30;8.10;;;;;;;12.85;96.51;98279.67;106791;1254;60483;-84
2023/10/26 07:48:35;;;;;;;9.00;7.40;;;;;;;12.87;96.95;98286.27;107056;1251;60434;-86
2023/10/26 07:51:03;;;;;;;8.30;7.30;;;;;;;12.91;96.59;98285.55;106864;1255;73857;-84
2023/10/26 07:53:30;;;;;;;8.70;7.80;;;;;;;12.98;96.28;98284.59;106527;1260;70219;-84
2023/10/26 07:55:57;;;;;;;10.70;7.30;;;;;;;13.09;96.35;98282.30;106557;1257;71331;-83
2023/10/26 07:58:25;;;;;;;8.20;7.40;;;;;;;13.25;96.56;98281.84;107837;1251;60516;-79
2023/10/26 08:00:52;;;;;;;9.20;7.70;;;;;;;13.41;96.28;98280.78;108645;1251;60322;-83
2023/10/26 08:03:19;;;;;;;11.10;7.30;;;;;;;13.60;95.22;98278.36;108516;1251;72691;-85
2023/10/26 08:05:55;;;;;;;9.30;7.60;;;;;;;13.76;94.10;98278.44;107445;1251;69074;-84
2023/10/26 08:08:22;;;;;;;9.40;7.50;;;;;;;13.95;92.33;98279.27;106368;1258;72623;-80
2023/10/26 08:10:49;;;;;;;7.80;7.10;;;;;;;14.05;91.47;98280.05;106426;1254;62016;-78
2023/10/26 08:13:16;;;;;;;7.20;6.50;;;;;;;14.04;91.16;98279.81;107857;1256;59228;-83
2023/10/26 08:15:43;;;;;;;8.30;6.70;;;;;;;14.00;91.14;98280.52;108441;1251;74085;-82
2023/10/26 08:18:33;;;;;;;8.10;7.00;;;;;;;14.01;90.65;98283.55;109168;1251;69456;-86
2023/10/26 08:21:09;;;;;;;9.80;7.20;;;;;;;14.06;90.55;98285.13;108899;1253;71228;-86
2023/10/26 08:24:36;;;;;;;8.90;7.40;;;;;;;14.18;90.88;98288.58;108921;1254;59418;31
2023/10/26 08:30:17;;;;;;;8.50;5.90;;;;;;;14.51;88.03;98297.30;108307;1262;72442;-85
2023/10/26 08:32:49;;;;;;;8.00;6.30;;;;;;;14.59;86.62;98291.88;107871;1262;69286;-84
2023/10/26 08:35:18;;;;;;;;;;;;;;;14.66;86.59;98294.44;106791;1262;71144;-84
2023/10/26 08:37:45;;;;;;;8.80;6.60;;;;;;;14.73;86.53;98292.02;106316;1265;61926;-86
2023/10/26 08:40:12;;;;;;;7.20;6.50;;;;;;;14.80;86.41;98294.35;106363;1262;60902;-88
2023/10/26 08:42:40;;;;;;;9.80;6.60;;;;;;;14.90;86.37;98298.99;106842;1265;73148;-85
2023/10/26 08:45:18;;;;;;;7.00;5.90;;;;;;;15.06;83.74;98301.52;106160;1265;70301;-87
2023/10/26 08:47:51;;;;;;;7.60;5.70;;;;;;;15.08;81.56;98307.45;107627;1262;71127;-86
2023/10/26 08:50:42;;;;;;;5.40;4.80;;;;;;;15.07;81.55;98309.36;108003;1261;59747;-86
2023/10/26 08:53:26;;;;;;;5.70;5.10;;;;;;;14.96;79.22;98310.12;107873;1264;60685;-84
2023/10/26 08:55:54;;;;;;;7.70;6.30;;;;;;;14.91;80.27;98307.23;107131;1262;71566;-87
2023/10/26 08:58:22;;;;;;;7.70;6.10;;;;;;;15.01;82.33;98306.11;107193;1263;69169;-87
2023/10/26 09:00:53;;;;;;;6.20;5.30;;;;;;;15.19;81.83;98301.86;107323;1262;72804;-89
2023/10/26 09:03:25;;;;;;;7.20;6.20;;;;;;;15.41;80.94;98307.55;107525;1262;60260;-85
2023/10/26 09:05:58;;;;;;;6.60;5.90;;;;;;;15.53;80.50;98308.73;108446;1262;60601;-86
2023/10/26 09:11:51;;;;;;;7.30;5.60;;;;;;;15.77;79.01;98315.34;101632;1265;66357;-84
2023/10/26 09:14:19;;;;;;;7.80;5.30;;;;;;;15.86;79.63;98320.40;106162;1266;72812;-84
2023/10/26 09:16:48;;;;;;;6.80;6.00;;;;;;;15.90;79.29;98315.33;106288;1270;60171;-85
2023/10/26 09:19:17;;;;;;;9.00;5.90;;;;;;;15.95;79.36;98317.73;107022;1261;60494;-84
2023/10/26 09:21:56;;;;;;;8.80;6.50;;;;;;;16.04;78.84;98316.40;106757;1262;75366;-87
2023/10/26 09:24:29;;;;;;;9.30;6.30;;;;;;;16.10;77.72;98314.86;107045;1262;70395;-87
2023/10/26 09:26:59;;;;;;;9.40;7.50;;;;;;;16.05;77.93;98314.92;107930;1265;70802;-85
2023/10/26 09:29:39;;;;;;;9.30;6.60;;;;;;;16.02;77.49;98315.30;106377;1261;62289;-84
2023/10/26 09:32:08;;;;;;;7.40;6.30;;;;;;;16.07;76.47;98321.59;106266;1264;60345;-88
2023/10/26 09:34:40;;;;;;;6.80;6.20;;;;;;;16.38;75.19;98320.31;106931;1263;72706;-87
2023/10/26 09:37:09;;;;;;;6.50;5.90;;;;;;;16.71;73.95;98323.30;106978;1267;69195;-86
2023/10/26 09:39:38;;;;;;;8.60;5.80;;;;;;;17.08;73.77;98317.63;106529;1264;73280;-87
2023/10/26 09:42:09;;;;;;;7.70;6.40;;;;;;;17.51;71.05;98322.38;106438;1262;60693;-85
2023/10/26 09:44:39;;;;;;;6.50;5.80;;;;;;;17.82;68.14;98322.91;106236;1264;60555;-87
2023/10/26 09:47:07;;;;;;;6.00;5.40;;;;;;;18.15;70.81;98315.08;105539;1264;73591;-84
2023/10/26 09:49:35;;;;;;;10.70;9.10;;;;;;;18.54;63.75;98314.25;105899;1268;69113;-84
2023/10/26 09:52:02;;;;;;;6.70;6.00;;;;;;;18.90;64.15;98312.20;106059;1262;72795;-83
2023/10/26 09:54:32;;;;;;;6.60;6.00;;;;;;;19.29;63.89;98296.86;105935;1262;60560;-82
2023/10/26 09:57:19;;;;;;;8.90;7.20;;;;;;;19.72;61.23;98294.26;105710;1268;60548;-82
2023/10/26 09:59:51;;;;;;;9.70;7.70;;;;;;;20.13;59.03;98296.23;106285;1264;73071;-78
2023/10/26 10:02:19;;;;;;;9.60;8.40;;;;;;;20.27;58.77;98289.96;106736;1266;70216;-83
2023/10/26 10:04:46;;;;;;;7.40;6.70;;;;;;;20.35;57.43;98287.40;106780;1262;72586;-81
2023/10/26 10:07:17;;;;;;;7.20;6.60;;;;;;;20.39;56.74;98289.88;106195;1265;60405;-78
2023/10/26 10:10:03;;;;;;;7.80;7.00;;;;;;;20.48;56.16;98291.07;106711;1265;60423;-81
2023/10/26 10:12:31;;;;;;;6.50;6.00;;;;;;;20.56;56.81;98287.09;106954;1264;74287;-83
2023/10/26 10:15:00;;;;;;;7.80;7.00;;;;;;;20.53;57.06;98288.70;107016;1266;69648;-83
2023/10/26 10:17:47;;;;;;;8.10;7.40;;;;;;;20.24;56.60;98291.52;105189;1267;72709;-79
2023/10/26 10:20:14;;;;;;;8.50;7.30;;;;;;;19.79;56.79;98295.03;105353;1275;60450;-80
2023/10/26 10:22:44;;;;;;;7.00;6.40;;;;;;;19.22;56.97;98287.94;105237;1264;60891;-82
2023/10/26 10:25:11;;;;;;;7.00;6.40;;;;;;;18.65;57.55;98279.17;105333;1263;73491;-82
2023/10/26 10:27:39;;;;;;;8.20;6.90;;;;;;;18.14;59.19;98281.54;105365;1266;70322;-82
2023/10/26 10:30:09;;;;;;;8.20;6.90;;;;;;;17.79;60.30;98283.45;105810;1265;72735;-82
2023/10/26 10:32:42;;;;;;;6.80;5.90;;;;;;;17.47;61.28;98280.52;105451;1264;60573;-84
2023/10/26 10:35:31;;;;;;;7.50;6.50;;;;;;;17.23;61.56;98287.21;105430;1264;60429;-81
2023/10/26 10:38:14;;;;;;;7.70;6.70;;;;;;;17.08;62.41;98289.52;105354;1267;73592;-81
2023/10/26 10:41:01;;;;;;;8.20;7.30;;;;;;;16.98;62.86;98291.27;105609;1266;68974;-79
2023/10/26 10:43:35;;;;;;;7.00;6.30;;;;;;;17.07;63.14;98292.73;105234;1261;72680;-82
2023/10/26 10:46:31;;;;;;;7.10;6.00;;;;;;;17.27;61.58;98295.91;105441;1262;60821;-82
2023/10/26 10:48:59;;;;;;;7.30;6.50;;;;;;;17.28;61.58;98293.10;105204;1268;60539;-82
2023/10/26 10:51:34;;;;;;;7.40;6.00;;;;;;;17.22;61.92;98292.41;105418;1267;73725;-80
2023/10/26 10:54:05;;;;;;;7.60;6.10;;;;;;;17.24;62.11;98290.89;105276;1262;70355;-79
2023/10/26 10:56:52;;;;;;;7.30;6.30;;;;;;;17.33;62.20;98288.58;105188;1264;72947;-79
2023/10/26 10:59:25;;;;;;;6.70;6.00;;;;;;;17.62;62.68;98292.83;105269;1265;60435;-76
2023/10/26 11:02:21;;;;;;;6.50;5.80;;;;;;;17.99;61.40;98289.98;105197;1269;60510;-79
2023/10/26 11:04:56;;;;;;;7.30;5.70;;;;;;;18.16;60.39;98288.42;105161;1264;73964;-77
2023/10/26 11:07:39;;;;;;;5.70;5.20;;;;;;;18.01;60.38;98293.16;105298;1264;69348;-80
2023/10/26 11:10:06;;;;;;;6.90;6.20;;;;;;;17.76;60.63;98298.07;105464;1263;72614;-78
2023/10/26 11:12:33;;;;;;;8.30;6.20;;;;;;;17.68;61.71;98301.45;105415;1269;60560;-81
2023/10/26 11:15:01;;;;;;;7.90;6.80;;;;;;;17.97;61.35;98296.44;105643;1264;60544;-80
2023/10/26 11:17:29;;;;;;;9.20;7.30;;;;;;;18.48;59.98;98291.38;105893;1267;72656;-80
2023/10/26 11:19:55;;;;;;;8.80;7.00;;;;;;;19.19;58.95;98286.14;105722;1266;69060;-79
2023/10/26 11:22:22;;;;;;;6.50;5.90;;;;;;;19.91;57.50;98283.92;105352;1264;72601;-79
2023/10/26 11:24:49;;;;;;;9.20;6.30;;;;;;;20.21;54.89;98289.95;105729;1264;60496;-80
2023/10/26 11:27:23;;;;;;;6.90;6.20;;;;;;;20.02;54.80;98293.73;106285;1268;60574;-80
2023/10/26 11:30:04;;;;;;;6.90;6.10;;;;;;;19.59;55.30;98291.92;105940;1266;73768;-77
2023/10/26 11:32:32;;;;;;;6.70;6.00;;;;;;;19.13;56.70;98294.29;106500;1264;70103;-80
2023/10/26 11:35:08;;;;;;;6.90;6.20;;;;;;;18.78;57.54;98284.55;105339;1263;72708;-79
2023/10/26 11:37:45;;;;;;;8.40;7.10;;;;;;;18.43;58.09;98291.39;105358;1263;60461;-77